Time;durP1;ratioP1;P1;durP2;ratioP2;P2;SDS_P1;SDS_P2;PMS_P1;PMS_P2;Temp;Humidity;BMP_temperature;BMP_pressure;BME280_temperature;BME280_humidity;BME280_pressure;Samples;Min_cycle;Max_cycle;Signal;HPM_P1;HPM_P2
2023/03/04 06:59:55;;;;;;;;;76.00;56.00;;;;;0.77;68.75;102425.84;5655750;23;46355;-71
2023/03/04 07:02:20;;;;;;;;;76.67;58.00;;;;;0.71;68.96;102411.38;4920642;28;45477;-73
2023/03/04 07:04:45;;;;;;;;;78.00;53.67;;;;;0.82;69.59;102431.47;4903857;28;47223;-74
2023/03/04 07:07:11;;;;;;;;;75.67;56.67;;;;;0.74;69.36;102409.03;4922991;28;45224;-74
2023/03/04 07:09:36;;;;;;;;;74.33;55.33;;;;;0.80;69.01;102413.09;4919899;28;45411;-73
2023/03/04 07:12:02;;;;;;;;;69.00;54.00;;;;;0.85;69.33;102432.63;4920531;28;45423;-73
2023/03/04 07:14:28;;;;;;;;;73.00;55.67;;;;;0.93;69.55;102435.94;4920272;28;45326;-74
2023/03/04 07:16:54;;;;;;;;;71.67;57.67;;;;;0.97;68.96;102437.13;4919088;28;51310;-73
2023/03/04 07:19:19;;;;;;;;;64.67;52.00;;;;;0.93;69.87;102422.91;4921368;28;45479;-72
2023/03/04 07:21:45;;;;;;;;;77.67;60.00;;;;;0.97;69.34;102427.59;4919034;28;45208;-73
2023/03/04 07:24:11;;;;;;;;;66.33;51.33;;;;;1.12;69.31;102441.06;4920763;28;45311;-72
2023/03/04 07:26:37;;;;;;;;;72.67;53.00;;;;;1.13;69.22;102435.09;4908585;28;45541;-71
2023/03/04 07:29:02;;;;;;;;;75.33;54.67;;;;;1.24;69.01;102441.25;4904207;28;45330;-76
2023/03/04 07:31:30;;;;;;;;;65.00;49.33;;;;;1.31;68.69;102452.31;4918113;28;45241;-75
2023/03/04 07:34:08;;;;;;;;;73.67;54.67;;;;;1.33;69.42;102427.34;4921680;28;45384;-75
2023/03/04 07:36:35;;;;;;;;;81.33;57.67;;;;;1.55;67.83;102448.38;4920615;28;45498;-75
2023/03/04 07:39:01;;;;;;;;;59.00;46.67;;;;;1.66;67.47;102449.31;4921812;28;45333;-75
2023/03/04 07:41:28;;;;;;;;;66.67;52.00;;;;;1.64;67.71;102436.91;4920241;28;45928;-75
2023/03/04 07:43:58;;;;;;;;;75.00;49.00;;;;;1.78;68.45;102457.25;4921518;28;45447;-75
2023/03/04 07:46:24;;;;;;;;;75.00;57.33;;;;;1.82;68.45;102459.38;4920023;28;45374;-74
2023/03/04 07:48:49;;;;;;;;;77.67;56.00;;;;;1.87;67.32;102451.91;4922526;28;45426;-73
2023/03/04 07:51:20;;;;;;;;;84.00;65.33;;;;;1.92;67.68;102453.22;4900688;28;45672;-74
2023/03/04 07:53:50;;;;;;;;;88.67;66.33;;;;;1.96;68.20;102457.91;4922245;28;45225;-73
2023/03/04 07:56:18;;;;;;;;;75.33;59.00;;;;;1.99;67.82;102455.59;4917149;28;45333;-73
2023/03/04 07:58:43;;;;;;;;;75.00;55.00;;;;;2.08;67.59;102458.06;4921997;28;45290;-73
2023/03/04 08:01:14;;;;;;;;;78.33;56.00;;;;;2.05;66.89;102450.00;4916219;28;46045;-73
2023/03/04 08:03:41;;;;;;;;;74.33;57.67;;;;;2.14;66.88;102458.59;4921585;28;46260;-73
2023/03/04 08:06:08;;;;;;;;;70.33;54.00;;;;;2.27;67.73;102463.13;4916500;28;45245;-73
2023/03/04 08:08:34;;;;;;;;;76.67;56.33;;;;;2.19;66.25;102442.53;4925746;28;45437;-73
2023/03/04 08:10:59;;;;;;;;;74.67;57.00;;;;;2.39;66.96;102462.47;4916384;28;45356;-73
2023/03/04 08:13:24;;;;;;;;;72.00;54.00;;;;;2.51;66.48;102465.19;4917769;28;45320;-73
2023/03/04 08:15:50;;;;;;;;;73.33;56.00;;;;;2.59;67.06;102466.75;4917119;28;45208;-73
2023/03/04 08:18:15;;;;;;;;;83.00;57.33;;;;;2.73;66.66;102467.00;4918924;28;45205;-72
2023/03/04 08:20:42;;;;;;;;;74.67;56.67;;;;;2.83;66.76;102475.72;4913593;28;45793;-72
2023/03/04 08:23:08;;;;;;;;;70.67;53.33;;;;;2.89;67.05;102454.41;4918660;28;45649;-73
2023/03/04 08:25:33;;;;;;;;;66.33;52.33;;;;;2.94;66.71;102450.47;4919332;28;45444;-72
2023/03/04 08:27:59;;;;;;;;;67.67;51.00;;;;;3.20;66.43;102475.19;4920918;28;45482;-72
2023/03/04 08:30:24;;;;;;;;;67.33;51.00;;;;;3.24;66.01;102461.56;4915719;28;45323;-72
2023/03/04 08:32:49;;;;;;;;;72.67;51.00;;;;;3.39;65.75;102454.97;4915837;28;45420;-74
2023/03/04 08:35:15;;;;;;;;;70.00;52.00;;;;;3.57;65.36;102469.50;4914869;28;45410;-72
2023/03/04 08:37:40;;;;;;;;;71.67;55.00;;;;;3.76;65.04;102481.41;4916810;28;45348;-72
2023/03/04 08:40:06;;;;;;;;;67.67;52.33;;;;;3.83;65.30;102470.63;4915237;28;45597;-72
2023/03/04 08:42:31;;;;;;;;;62.67;48.00;;;;;3.96;65.00;102478.66;4920206;28;45298;-72
2023/03/04 08:44:56;;;;;;;;;61.33;49.33;;;;;3.97;65.41;102464.75;4916720;28;45516;-72
2023/03/04 08:47:22;;;;;;;;;74.33;57.67;;;;;4.07;65.12;102462.88;4916668;28;45280;-74
2023/03/04 08:49:47;;;;;;;;;73.67;54.67;;;;;4.14;65.39;102460.84;4915650;28;45369;-74
2023/03/04 08:52:12;;;;;;;;;71.33;54.00;;;;;4.23;64.20;102464.19;4899246;28;46641;-73
2023/03/04 08:54:38;;;;;;;;;80.33;60.33;;;;;4.31;63.88;102469.06;4898525;29;45299;-74
2023/03/04 08:57:03;;;;;;;;;78.00;56.67;;;;;4.36;64.32;102462.47;4917379;28;45337;-74
2023/03/04 08:59:28;;;;;;;;;77.00;59.00;;;;;4.47;63.98;102479.91;4918269;28;45306;-75
2023/03/04 09:01:54;;;;;;;;;72.67;60.00;;;;;4.56;64.34;102482.31;4915296;28;48425;-74
2023/03/04 09:04:20;;;;;;;;;81.67;64.00;;;;;4.63;64.11;102477.66;4918693;28;45250;-74
2023/03/04 09:06:45;;;;;;;;;74.00;56.33;;;;;4.73;63.44;102479.25;4919351;28;45338;-73
2023/03/04 09:09:10;;;;;;;;;62.75;42.75;;;;;4.70;63.25;102471.16;4922715;28;44740;-74
2023/03/04 09:11:36;;;;;;;;;51.00;41.00;;;;;4.85;63.41;102487.13;4917267;28;45287;-73
2023/03/04 09:14:02;;;;;;;;;65.50;44.25;;;;;4.86;63.28;102484.63;4918599;28;45396;-74
2023/03/04 09:16:28;;;;;;;;;58.00;45.50;;;;;4.93;62.43;102481.66;4922121;28;45439;-73
2023/03/04 09:18:54;;;;;;;;;45.25;38.50;;;;;5.00;62.29;102489.97;4926784;28;44883;-73
2023/03/04 09:21:19;;;;;;;;;53.50;39.25;;;;;5.05;62.24;102484.28;4922801;28;45498;-73
2023/03/04 09:23:44;;;;;;;;;42.25;36.00;;;;;5.14;61.79;102486.66;4927366;28;45248;-74
2023/03/04 09:26:20;;;;;;;;;47.50;39.75;;;;;5.18;62.99;102488.69;4921152;28;45502;-74
2023/03/04 09:28:50;;;;;;;;;53.00;38.75;;;;;5.21;62.48;102483.69;4927453;28;45380;-74
2023/03/04 09:31:15;;;;;;;;;45.00;34.50;;;;;5.25;61.63;102476.97;4902298;28;45415;-74
2023/03/04 09:33:41;;;;;;;;;43.25;35.75;;;;;5.29;62.58;102485.16;4926428;28;45273;-73
2023/03/04 09:36:09;;;;;;;;;40.75;34.00;;;;;5.35;61.41;102490.84;4909503;28;45368;-74
2023/03/04 09:38:37;;;;;;;;;44.50;32.00;;;;;5.33;61.42;102471.47;4926219;28;45320;-74
2023/03/04 09:41:08;;;;;;;;;38.25;33.50;;;;;5.45;61.83;102484.53;4923318;28;45459;-74
2023/03/04 09:43:36;;;;;;;;;46.25;39.50;;;;;5.45;62.01;102488.88;4909987;28;45278;-74
2023/03/04 09:46:07;;;;;;;;;52.00;36.75;;;;;5.51;60.83;102489.31;4925261;28;45416;-74
2023/03/04 09:48:42;;;;;;;;;50.25;38.00;;;;;5.58;61.00;102486.34;4927553;28;45437;-74
2023/03/04 09:51:21;;;;;;;;;39.75;28.75;;;;;5.57;61.66;102476.66;4918139;28;45369;-73
2023/03/04 09:54:24;;;;;;;;;47.50;35.00;;;;;5.68;61.54;102494.06;4918682;28;45293;-74
2023/03/04 09:56:54;;;;;;;;;45.50;32.75;;;;;5.67;60.06;102484.38;4916697;28;45301;-74
2023/03/04 09:59:43;;;;;;;;;36.00;33.00;;;;;5.80;59.96;102494.03;4922391;28;45331;-74
2023/03/04 10:02:44;;;;;;;;;38.00;30.25;;;;;5.86;61.19;102489.22;4925156;28;45472;-74
2023/03/04 10:05:18;;;;;;;;;33.25;28.25;;;;;5.92;61.01;102488.75;4895532;28;45326;-74
2023/03/04 10:07:48;;;;;;;;;35.25;27.75;;;;;5.93;59.74;102493.19;4926512;28;45616;-73
2023/03/04 10:10:20;;;;;;;;;32.75;27.75;;;;;5.91;60.39;102481.66;4925230;28;45781;-72
2023/03/04 10:12:49;;;;;;;;;33.50;30.00;;;;;5.98;60.07;102482.22;4926825;28;45264;-73
2023/03/04 10:15:22;;;;;;;;;30.25;26.00;;;;;6.07;59.74;102494.19;4922325;28;45507;-75
2023/03/04 10:17:53;;;;;;;;;31.50;27.00;;;;;6.07;60.79;102478.44;4924540;28;45364;-73
2023/03/04 10:20:32;;;;;;;;;25.75;20.00;;;;;6.13;59.67;102484.09;4916718;28;45435;-73
2023/03/04 10:23:07;;;;;;;;;22.50;22.50;;;;;6.17;59.94;102486.16;4927068;28;46304;-73
2023/03/04 10:25:35;;;;;;;;;52.25;40.00;;;;;6.20;58.65;102489.88;4923865;28;45506;-73
2023/03/04 10:28:01;;;;;;;;;32.50;23.50;;;;;6.22;59.32;102474.25;4925292;28;45547;-74
2023/03/04 10:30:58;;;;;;;;;27.25;25.00;;;;;6.29;60.14;102465.97;4921713;28;45342;-73
2023/03/04 10:33:35;;;;;;;;;23.00;20.75;;;;;6.34;59.92;102469.84;4923963;28;45431;-71
2023/03/04 10:36:21;;;;;;;;;22.50;19.50;;;;;6.39;59.13;102470.16;4919929;28;45241;-73
2023/03/04 10:38:47;;;;;;;;;25.25;19.75;;;;;6.34;60.00;102455.78;4922994;28;45207;-73
2023/03/04 10:41:21;;;;;;;;;39.50;29.75;;;;;6.44;58.23;102464.41;4920352;28;45353;-73
2023/03/04 10:44:08;;;;;;;;;38.50;28.00;;;;;6.52;58.77;102462.28;4923437;28;46110;-73
2023/03/04 10:46:40;;;;;;;;;32.50;23.25;;;;;6.59;59.12;102461.91;4921959;28;45415;-73
2023/03/04 10:49:05;;;;;;;;;24.75;19.00;;;;;6.63;59.04;102463.00;4905113;28;45398;-72
2023/03/04 10:51:31;;;;;;;;;25.25;22.25;;;;;6.56;59.55;102456.44;4917561;28;45515;-72
2023/03/04 10:54:04;;;;;;;;;32.25;25.75;;;;;6.60;58.55;102460.19;4923021;28;45285;-73
2023/03/04 10:56:45;;;;;;;;;25.00;18.50;;;;;6.68;59.63;102449.38;4918881;28;45560;-72
2023/03/04 10:59:41;;;;;;;;;20.50;15.75;;;;;6.70;58.31;102453.00;4905398;28;45295;-73
2023/03/04 11:02:26;;;;;;;;;33.50;30.50;;;;;6.82;59.31;102449.38;4920728;28;45471;-73
2023/03/04 11:05:19;;;;;;;;;33.00;25.00;;;;;6.83;57.09;102448.56;4899742;28;47518;-73
2023/03/04 11:07:55;;;;;;;;;15.75;12.00;;;;;6.85;57.38;102444.31;4921843;28;45449;-74
2023/03/04 11:10:35;;;;;;;;;21.25;17.25;;;;;6.93;58.32;102451.91;4920802;28;45361;-73
2023/03/04 11:13:11;;;;;;;;;20.50;16.75;;;;;7.01;58.44;102447.16;4919733;28;45272;-74
2023/03/04 11:15:56;;;;;;;;;22.75;18.25;;;;;7.08;58.48;102449.34;4913980;28;45281;-72
2023/03/04 11:18:25;;;;;;;;;18.00;14.75;;;;;7.12;58.35;102438.22;4922835;28;45297;-73
2023/03/04 11:20:53;;;;;;;;;20.00;14.00;;;;;7.17;56.88;102433.28;4902904;28;44919;-73
2023/03/04 11:23:42;;;;;;;;;16.00;14.25;;;;;7.25;58.23;102436.38;4922803;28;45403;-74
2023/03/04 11:26:14;;;;;;;;;14.50;13.00;;;;;7.30;58.58;102437.59;4920913;28;46464;-73
2023/03/04 11:28:55;;;;;;;;;43.00;33.00;;;;;7.07;57.79;102405.47;4923022;28;45243;-74
2023/03/04 11:31:35;;;;;;;;;26.25;18.25;;;;;7.12;57.77;102397.88;4921030;28;45374;-73
2023/03/04 11:34:23;;;;;;;;;19.00;15.50;;;;;7.26;57.20;102422.44;4922154;28;45405;-74
2023/03/04 11:36:56;;;;;;;;;22.50;20.25;;;;;7.36;57.01;102422.19;4893800;28;45585;-74
2023/03/04 11:39:43;;;;;;;;;37.75;30.25;;;;;7.38;57.41;102407.41;4920670;28;45172;-73
2023/03/04 11:42:44;;;;;;;;;40.25;31.50;;;;;7.32;57.49;102388.63;4922705;28;45343;-74
2023/03/04 11:45:26;;;;;;;;;25.50;22.00;;;;;7.46;56.85;102400.03;4900226;28;46147;-75
2023/03/04 11:48:15;;;;;;;;;22.75;17.50;;;;;7.63;57.27;102407.25;4905478;28;48029;-72
2023/03/04 11:50:52;;;;;;;;;20.00;16.50;;;;;7.60;56.59;102402.69;4918698;28;45228;-74
2023/03/04 11:53:30;;;;;;;;;24.75;16.75;;;;;7.66;56.33;102410.06;4922596;28;45354;-75
2023/03/04 11:56:20;;;;;;;;;21.25;16.00;;;;;7.60;55.85;102383.38;4919226;28;45383;-74
2023/03/04 11:59:26;;;;;;;;;21.50;14.50;;;;;7.78;56.99;102394.09;4919146;28;46211;-74
2023/03/04 12:02:14;;;;;;;;;31.75;24.00;;;;;7.78;55.94;102396.72;4916120;28;45286;-74
2023/03/04 12:04:45;;;;;;;;;20.50;16.25;;;;;7.83;55.73;102387.41;4917854;28;45492;-73
2023/03/04 12:07:38;;;;;;;;;19.25;16.50;;;;;7.86;56.07;102390.22;4919914;28;45250;-73
2023/03/04 12:10:22;;;;;;;;;21.50;20.00;;;;;7.95;56.12;102392.50;4908589;28;45695;-73
2023/03/04 12:12:59;;;;;;;;;57.75;38.75;;;;;7.90;54.71;102396.56;4922017;28;45335;-73
2023/03/04 12:15:43;;;;;;;;;14.50;13.75;;;;;7.92;55.14;102397.56;4915966;28;45361;-72
2023/03/04 12:18:17;;;;;;;;;56.50;42.25;;;;;7.99;55.08;102392.78;4921461;28;44742;-72
2023/03/04 12:21:00;;;;;;;;;72.00;53.25;;;;;7.78;55.71;102347.63;4916267;28;46729;-73
2023/03/04 12:23:41;;;;;;;;;43.50;34.50;;;;;8.01;55.59;102391.16;4922122;28;45476;-74
2023/03/04 12:26:06;;;;;;;;;37.75;24.75;;;;;8.00;54.31;102391.06;4914072;28;45259;-72
2023/03/04 12:28:42;;;;;;;;;22.00;17.25;;;;;7.98;54.02;102384.78;4921352;28;45234;-73
2023/03/04 12:31:33;;;;;;;;;16.00;14.00;;;;;7.94;54.45;102383.69;4916230;28;45366;-73
2023/03/04 12:34:07;;;;;;;;;25.50;21.25;;;;;7.94;55.14;102377.53;4921165;28;45368;-73
2023/03/04 12:36:51;;;;;;;;;15.50;10.75;;;;;7.88;54.97;102375.44;4916926;28;45364;-73
2023/03/04 12:39:28;;;;;;;;;16.00;10.25;;;;;7.88;54.30;102374.53;4911877;28;47333;-73
2023/03/04 12:42:34;;;;;;;;;24.00;18.75;;;;;7.88;55.07;102367.53;4920740;28;45263;-73
2023/03/04 12:45:17;;;;;;;;;17.25;14.00;;;;;7.88;55.30;102364.91;4917587;28;45395;-73
2023/03/04 12:48:16;;;;;;;;;14.25;9.25;;;;;7.86;54.67;102366.53;4913899;28;45597;-73
2023/03/04 12:50:53;;;;;;;;;15.00;14.50;;;;;7.84;54.88;102371.72;4916583;28;45351;-73
2023/03/04 12:53:24;;;;;;;;;19.00;10.25;;;;;7.84;54.59;102357.63;4921123;28;46123;-73
2023/03/04 12:55:55;;;;;;;;;19.25;13.25;;;;;7.83;54.99;102356.72;4919664;28;45420;-73
2023/03/04 12:58:25;;;;;;;;;14.00;8.00;;;;;7.76;54.22;102343.13;4921151;28;45530;-74
2023/03/04 13:01:11;;;;;;;;;13.00;10.50;;;;;7.54;54.86;102306.69;4912978;28;45557;-73
2023/03/04 13:04:03;;;;;;;;;7.00;7.00;;;;;7.77;54.35;102343.19;4912442;28;45241;-73
2023/03/04 13:06:47;;;;;;;;;14.50;13.25;;;;;7.81;54.80;102344.28;4916165;28;45273;-73
2023/03/04 13:09:45;;;;;;;;;11.75;9.25;;;;;7.83;54.82;102330.38;4927170;28;45269;-73
2023/03/04 13:12:21;;;;;;;;;16.75;11.00;;;;;7.91;54.49;102325.59;4909259;28;45410;-73
2023/03/04 13:15:08;;;;;;;;;13.75;9.25;;;;;7.90;54.54;102328.13;4916737;28;45818;-72
2023/03/04 13:17:41;;;;;;;;;15.75;11.25;;;;;7.91;54.46;102316.78;4919595;28;45353;-72
2023/03/04 13:20:19;;;;;;;;;16.50;12.75;;;;;7.95;54.95;102317.03;4917975;28;45246;-73
2023/03/04 13:22:57;;;;;;;;;16.75;11.00;;;;;7.98;54.88;102314.63;4919777;28;45396;-73
2023/03/04 13:25:43;;;;;;;;;11.00;11.00;;;;;7.96;54.43;102310.97;4914664;28;45474;-73
2023/03/04 13:28:08;;;;;;;;;11.75;10.25;;;;;7.98;54.17;102300.50;4903858;28;45306;-73
2023/03/04 13:30:33;;;;;;;;;12.00;9.25;;;;;8.02;54.69;102308.69;4918942;28;45229;-73
2023/03/04 13:33:08;;;;;;;;;16.25;15.00;;;;;8.02;54.87;102298.16;4920241;28;45466;-72
2023/03/04 13:35:42;;;;;;;;;13.25;10.75;;;;;8.02;54.85;102306.06;4916095;28;46271;-72
2023/03/04 13:38:36;;;;;;;;;14.75;13.00;;;;;8.02;54.53;102303.44;4906755;28;46354;-73
2023/03/04 13:41:19;;;;;;;;;14.00;11.25;;;;;8.10;54.89;102293.34;4919101;28;45472;-72
2023/03/04 13:43:49;;;;;;;;;11.25;10.00;;;;;8.14;54.85;102297.97;4910591;28;45353;-73
2023/03/04 13:46:17;;;;;;;;;10.50;10.00;;;;;8.14;54.67;102295.34;4910733;28;45763;-72
2023/03/04 13:49:06;;;;;;;;;14.75;14.00;;;;;8.15;54.35;102290.97;4903576;28;45340;-72
2023/03/04 13:51:43;;;;;;;;;15.75;9.75;;;;;8.13;54.42;102292.63;4913872;28;45450;-73
2023/03/04 13:54:18;;;;;;;;;14.25;8.00;;;;;8.15;54.78;102291.91;4919409;28;45314;-73
2023/03/04 13:56:46;;;;;;;;;11.75;10.25;;;;;8.11;54.51;102300.44;4916619;28;45272;-73
2023/03/04 13:59:26;;;;;;;;;11.25;10.75;;;;;8.05;54.79;102295.72;4918825;28;45244;-73
2023/03/04 14:02:00;;;;;;;;;12.50;8.75;;;;;8.02;54.63;102287.63;4911483;28;45317;-72
2023/03/04 14:04:28;;;;;;;;;13.00;8.00;;;;;7.97;54.35;102283.81;4916933;28;47101;-73
2023/03/04 14:06:59;;;;;;;;;12.50;9.00;;;;;7.94;54.27;102285.38;4919115;28;45251;-72
2023/03/04 14:09:27;;;;;;;;;8.50;8.25;;;;;8.03;54.29;102289.44;4931953;28;45465;-72
2023/03/04 14:11:56;;;;;;;;;14.25;11.00;;;;;8.07;54.25;102283.53;4919652;28;45355;-72
2023/03/04 14:14:41;;;;;;;;;12.50;11.00;;;;;8.08;54.36;102279.19;4921804;28;45619;-73
2023/03/04 14:17:17;;;;;;;;;14.75;11.25;;;;;8.15;54.36;102280.44;4921099;28;46192;-72
2023/03/04 14:19:45;;;;;;;;;10.00;9.75;;;;;8.19;53.67;102279.81;4921970;28;45552;-73
2023/03/04 14:22:19;;;;;;;;;11.25;9.50;;;;;8.20;54.58;102281.63;4923510;28;45327;-73
2023/03/04 14:25:02;;;;;;;;;10.75;10.00;;;;;8.10;53.89;102261.75;4921870;28;45459;-73
2023/03/04 14:27:31;;;;;;;;;11.00;10.00;;;;;8.21;53.35;102272.91;4899337;28;46416;-74
2023/03/04 14:29:59;;;;;;;;;15.00;10.75;;;;;8.28;53.56;102269.78;4918330;28;45460;-73
2023/03/04 14:32:26;;;;;;;;;11.00;11.00;;;;;8.30;54.17;102274.34;4903210;28;45227;-72
2023/03/04 14:34:57;;;;;;;;;8.25;7.75;;;;;8.29;54.30;102271.63;4915136;28;45262;-76
2023/03/04 14:37:37;;;;;;;;;10.75;8.25;;;;;8.26;53.18;102268.78;4906001;28;46245;-73
2023/03/04 14:40:04;;;;;;;;;9.50;9.00;;;;;8.28;53.97;102262.78;4918606;28;45236;-73
2023/03/04 14:42:43;;;;;;;;;10.25;8.50;;;;;8.23;54.12;102250.19;4923804;28;45276;-73
2023/03/04 14:45:15;;;;;;;;;8.75;8.00;;;;;8.25;53.72;102252.09;4921050;28;45334;-73
2023/03/04 14:47:46;;;;;;;;;9.25;9.00;;;;;8.21;53.04;102242.19;4923383;28;46298;-74
2023/03/04 14:50:19;;;;;;;;;18.00;12.75;;;;;8.24;53.61;102242.38;4920389;28;45544;-73
2023/03/04 14:52:50;;;;;;;;;10.50;8.50;;;;;8.26;53.40;102231.91;4923166;28;44749;-74
2023/03/04 14:55:24;;;;;;;;;15.00;10.75;;;;;8.24;53.07;102234.47;4900225;28;46193;-73
2023/03/04 14:57:59;;;;;;;;;11.00;11.00;;;;;8.24;53.61;102223.94;4923119;28;45664;-74
2023/03/04 15:00:31;;;;;;;;;11.00;10.00;;;;;8.33;53.11;102230.56;4914858;28;45462;-73
2023/03/04 15:03:02;;;;;;;;;9.00;6.50;;;;;8.33;53.35;102233.19;4922705;28;45189;-73
2023/03/04 15:05:35;;;;;;;;;13.50;6.00;;;;;8.30;53.72;102233.91;4920083;28;44852;-73
2023/03/04 15:08:24;;;;;;;;;10.75;10.75;;;;;8.28;53.36;102238.19;4926123;28;45372;-73
2023/03/04 15:11:04;;;;;;;;;15.25;10.25;;;;;8.14;53.31;102210.16;4920513;28;45294;-74
2023/03/04 15:13:48;;;;;;;;;8.75;8.75;;;;;8.21;53.17;102233.41;4922736;28;45268;-73
2023/03/04 15:16:16;;;;;;;;;10.25;8.25;;;;;8.19;52.59;102225.41;4916390;28;45413;-73
2023/03/04 15:19:19;;;;;;;;;11.00;7.75;;;;;8.13;53.08;102221.53;4922911;28;46326;-73
2023/03/04 15:21:44;;;;;;;;;13.50;10.50;;;;;8.09;52.86;102215.16;4920063;28;45378;-73
2023/03/04 15:24:10;;;;;;;;;11.75;10.00;;;;;8.13;52.60;102224.16;4921969;28;45416;-73
2023/03/04 15:26:41;;;;;;;;;11.50;10.00;;;;;8.06;52.75;102209.72;4918400;28;45391;-73
2023/03/04 15:29:18;;;;;;;;;10.00;9.00;;;;;8.11;53.62;102205.63;4921779;28;45479;-73
2023/03/04 15:31:47;;;;;;;;;11.25;10.50;;;;;8.13;53.05;102208.34;4920900;28;45332;-73
2023/03/04 15:34:16;;;;;;;;;12.75;8.75;;;;;8.10;53.05;102216.97;4921628;28;45413;-74
2023/03/04 15:36:48;;;;;;;;;13.50;10.25;;;;;8.07;53.31;102207.19;4919808;28;45165;-74
2023/03/04 15:39:15;;;;;;;;;9.00;9.00;;;;;8.03;53.39;102202.53;4921124;28;45266;-74
2023/03/04 15:41:41;;;;;;;;;13.50;10.25;;;;;7.95;52.86;102192.38;4903479;28;45061;-74
2023/03/04 15:44:06;;;;;;;;;13.50;9.00;;;;;7.95;52.63;102209.09;4921973;28;45277;-74
2023/03/04 15:46:32;;;;;;;;;12.25;10.25;;;;;7.94;53.28;102207.28;4921259;28;44904;-73
2023/03/04 15:48:57;;;;;;;;;14.00;13.50;;;;;7.91;53.45;102200.94;4922489;28;46105;-74
2023/03/04 15:51:23;;;;;;;;;16.50;13.75;;;;;7.83;53.13;102193.50;4897468;28;45310;-73
2023/03/04 15:53:51;;;;;;;;;13.25;10.00;;;;;7.90;53.54;102207.94;4922822;28;44809;-73
2023/03/04 15:56:23;;;;;;;;;12.50;11.25;;;;;7.88;53.21;102212.22;4915887;28;45350;-73
2023/03/04 15:58:57;;;;;;;;;15.00;10.00;;;;;7.91;53.42;102207.13;4922508;28;46212;-73
2023/03/04 16:01:24;;;;;;;;;9.50;8.50;;;;;7.82;53.22;102193.44;4916684;28;45332;-73
2023/03/04 16:03:50;;;;;;;;;11.50;8.00;;;;;7.88;53.50;102206.94;4922380;28;45503;-73
2023/03/04 16:06:19;;;;;;;;;11.50;9.00;;;;;7.71;53.23;102192.81;4915518;28;45324;-73
2023/03/04 16:08:46;;;;;;;;;8.00;8.00;;;;;7.79;53.13;102209.06;4930689;28;45354;-73
2023/03/04 16:11:17;;;;;;;;;11.75;9.50;;;;;7.77;53.46;102206.31;4916300;28;45245;-73
2023/03/04 16:13:43;;;;;;;;;9.00;8.25;;;;;7.72;53.33;102193.69;4922217;28;45324;-74
2023/03/04 16:16:12;;;;;;;;;9.75;9.50;;;;;7.78;53.71;102202.84;4915757;28;45424;-73
2023/03/04 16:18:38;;;;;;;;;8.50;7.50;;;;;7.73;53.21;102201.69;4922409;28;45281;-72
2023/03/04 16:21:04;;;;;;;;;10.00;10.00;;;;;7.73;53.44;102198.13;4915729;28;44821;-73
2023/03/04 16:23:38;;;;;;;;;10.50;10.25;;;;;7.71;53.39;102197.16;4922052;28;45223;-72
2023/03/04 16:26:03;;;;;;;;;9.50;9.50;;;;;7.65;53.07;102188.91;4916220;28;45640;-72
2023/03/04 16:28:29;;;;;;;;;12.50;10.75;;;;;7.70;53.81;102191.00;4918417;28;46067;-72
2023/03/04 16:30:54;;;;;;;;;9.75;8.75;;;;;7.69;53.37;102180.38;4900589;28;46219;-72
2023/03/04 16:33:19;;;;;;;;;21.00;15.25;;;;;7.69;53.24;102178.63;4906420;28;45274;-73
2023/03/04 16:35:45;;;;;;;;;13.00;11.25;;;;;7.71;53.69;102187.53;4919179;28;45297;-73
2023/03/04 16:38:18;;;;;;;;;8.00;8.00;;;;;7.74;53.41;102189.44;4920502;28;46477;-72
2023/03/04 16:40:44;;;;;;;;;9.75;7.75;;;;;7.68;53.22;102195.25;4920148;28;45444;-72
2023/03/04 16:43:12;;;;;;;;;9.75;7.50;;;;;7.68;53.53;102190.00;4906916;28;47282;-73
2023/03/04 16:45:38;;;;;;;;;8.00;7.75;;;;;7.67;53.64;102201.31;4915272;28;45134;-72
2023/03/04 16:48:04;;;;;;;;;9.00;7.00;;;;;7.64;53.63;102201.13;4918336;28;46235;-73
2023/03/04 16:50:29;;;;;;;;;10.75;9.75;;;;;7.58;53.81;102191.16;4916782;28;45283;-73
2023/03/04 16:52:55;;;;;;;;;8.00;8.00;;;;;7.55;53.65;102185.72;4901677;28;45412;-73
2023/03/04 16:55:26;;;;;;;;;9.00;8.00;;;;;7.53;53.51;102189.06;4916875;28;45453;-73
2023/03/04 16:57:53;;;;;;;;;9.00;7.50;;;;;7.55;53.88;102190.97;4921254;28;46185;-73
2023/03/04 17:00:21;;;;;;;;;11.75;9.25;;;;;7.61;53.76;102209.75;4900306;28;45492;-73
2023/03/04 17:02:54;;;;;;;;;14.75;14.00;;;;;7.58;53.96;102196.44;4921220;28;45170;-73
2023/03/04 17:05:22;;;;;;;;;15.25;11.25;;;;;7.59;53.88;102197.34;4915564;28;45452;-73
2023/03/04 17:07:48;;;;;;;;;8.25;8.25;;;;;7.59;53.60;102205.25;4921160;28;48048;-73
2023/03/04 17:10:14;;;;;;;;;7.50;6.00;;;;;7.51;53.88;102196.00;4922758;28;45410;-73
2023/03/04 17:12:41;;;;;;;;;10.75;8.00;;;;;7.56;53.71;102203.34;4921437;28;45364;-73
2023/03/04 17:15:09;;;;;;;;;10.25;6.25;;;;;7.57;53.95;102201.63;4915175;28;45423;-73
2023/03/04 17:17:34;;;;;;;;;12.25;7.25;;;;;7.54;53.96;102199.72;4921060;28;45299;-73
2023/03/04 17:20:03;;;;;;;;;10.25;10.25;;;;;7.56;54.23;102205.03;4916032;28;45231;-74
2023/03/04 17:22:29;;;;;;;;;10.50;7.50;;;;;7.44;54.16;102189.44;4921502;28;45442;-73
2023/03/04 17:24:54;;;;;;;;;12.25;10.00;;;;;7.47;54.26;102197.50;4915317;28;45502;-73
2023/03/04 17:27:19;;;;;;;;;4.00;3.00;;;;;7.48;54.06;102198.41;4917719;28;46298;-74
2023/03/04 17:29:46;;;;;;;;;9.25;7.75;;;;;7.42;54.02;102191.06;4918053;28;45448;-74
2023/03/04 17:32:11;;;;;;;;;13.00;9.00;;;;;7.44;54.32;102202.59;4919032;28;45379;-73
2023/03/04 17:34:37;;;;;;;;;13.75;12.25;;;;;7.37;54.56;102201.34;4919102;28;45288;-72
2023/03/04 17:37:02;;;;;;;;;13.00;11.25;;;;;7.37;54.16;102208.31;4920397;28;45168;-73
2023/03/04 17:39:27;;;;;;;;;12.00;9.00;;;;;7.31;54.49;102194.78;4922922;28;45360;-73
2023/03/04 17:41:53;;;;;;;;;12.25;11.75;;;;;7.33;54.67;102208.94;4924502;28;45404;-73
2023/03/04 17:44:18;;;;;;;;;13.00;11.25;;;;;7.27;54.55;102195.44;4923036;28;45760;-73
2023/03/04 17:46:47;;;;;;;;;9.25;7.75;;;;;7.25;54.83;102205.84;4900851;28;47028;-73
2023/03/04 17:49:13;;;;;;;;;9.75;8.75;;;;;7.24;54.83;102208.41;4923705;28;45649;-73
2023/03/04 17:51:38;;;;;;;;;9.00;9.00;;;;;7.23;54.89;102211.84;4918665;28;45251;-73
2023/03/04 17:54:07;;;;;;;;;12.75;10.00;;;;;7.23;54.82;102222.38;4923557;28;45438;-73
2023/03/04 17:56:33;;;;;;;;;10.50;9.00;;;;;7.13;55.39;102200.75;4915215;28;47253;-72
2023/03/04 17:59:00;;;;;;;;;9.75;8.25;;;;;7.21;54.85;102217.00;4918551;28;45370;-73
2023/03/04 18:01:27;;;;;;;;;13.75;11.00;;;;;7.20;54.48;102219.53;4918182;28;45434;-72
2023/03/04 18:06:27;;;;;;;;;15.75;12.50;;;;;7.18;55.90;102204.56;5012395;23;45790;-72
2023/03/04 18:08:53;;;;;;;;;9.00;9.00;;;;;7.17;54.98;102208.03;4943975;28;45259;-73
2023/03/04 18:11:20;;;;;;;;;8.25;8.00;;;;;7.16;54.81;102200.03;4946920;28;45528;-74
2023/03/04 18:13:46;;;;;;;;;13.25;12.50;;;;;7.23;55.61;102211.84;4947773;28;45330;-73
2023/03/04 18:16:15;;;;;;;;;18.25;12.50;;;;;7.15;55.63;102195.59;4948866;28;46367;-74
2023/03/04 18:18:43;;;;;;;;;12.25;9.00;;;;;7.26;55.59;102207.69;4957658;28;44767;-72
2023/03/04 18:21:09;;;;;;;;;15.75;13.00;;;;;7.21;54.64;102200.31;4946020;28;45347;-74
2023/03/04 18:23:35;;;;;;;;;14.75;12.50;;;;;7.28;54.61;102210.38;4945672;28;45343;-73
2023/03/04 18:26:01;;;;;;;;;16.25;14.75;;;;;7.24;54.93;102201.41;4944556;28;46249;-73
2023/03/04 18:28:28;;;;;;;;;20.50;16.50;;;;;7.28;55.35;102203.44;4945256;28;45475;-73
2023/03/04 18:30:53;;;;;;;;;18.00;15.50;;;;;7.01;55.76;102165.84;4943448;28;45281;-73
2023/03/04 18:33:19;;;;;;;;;17.50;15.50;;;;;7.26;55.85;102198.88;4928542;28;45936;-72
2023/03/04 18:35:45;;;;;;;;;13.00;13.00;;;;;7.23;55.16;102193.44;4943615;28;45541;-72
2023/03/04 18:38:10;;;;;;;;;16.25;13.00;;;;;7.28;55.05;102200.78;4945774;28;45213;-73
2023/03/04 18:40:40;;;;;;;;;19.25;14.50;;;;;7.26;55.59;102191.91;4929979;28;45499;-73
2023/03/04 18:43:06;;;;;;;;;19.50;17.50;;;;;7.22;55.72;102181.09;4952564;28;45753;-72